Flight Track Log - Related Links

Times and Time Zones

All times are in EDT time to prevent confusion due to time zone crossing. See the EJA922 flight status page for this flight to view local times or setup timezone preferences in your user account.


Time Position Orientation Groundspeed Altitude Reporting Facility
EDT Latitude Longitude Course Direction KTS MPH feet Rate Location/Type
Thu 10:44:29 AM 41.3153 -95.9117 35° Northeast 169 194 2,100  Level Minneapolis Center
Thu 10:45:45 AM 41.3778 -95.8542 35° Northeast 223 257 5,700 2,652 Climbing Minneapolis Center
Thu 10:46:47 AM 41.4428 -95.7994 32° Northeast 278 320 8,200 2,613 Climbing Minneapolis Center
Thu 10:47:49 AM 41.4856 -95.7022 60° Northeast 308 354 11,100 2,419 Climbing Minneapolis Center
Thu 10:48:51 AM 41.5242 -95.5825 67° East 346 398 13,200 1,984 Climbing Minneapolis Center
Thu 10:49:53 AM 41.5683 -95.4486 66° East 387 445 15,200 1,935 Climbing Minneapolis Center
Thu 10:50:55 AM 41.6150 -95.3064 66° East 409 471 17,200 2,129 Climbing Minneapolis Center
Thu 10:51:57 AM 41.6714 -95.1319 67° East 423 487 19,600 1,935 Climbing Minneapolis Center
Thu 10:52:59 AM 41.7181 -94.9861 67° East 426 490 21,200 1,258 Climbing Minneapolis Center
Thu 10:54:01 AM 41.7675 -94.8333 67° East 442 509 22,200 871 Climbing Minneapolis Center
Thu 10:55:03 AM 41.8181 -94.6744 67° East 457 526 23,000 672 Climbing Minneapolis Center
Thu 10:56:06 AM 41.9125 -94.5547 43° Northeast 476 548 23,600 912 Climbing Minneapolis Center
Thu 10:57:08 AM 42.0600 -94.5236 North 448 516 24,900 726 Climbing Minneapolis Center
Thu 10:58:10 AM 42.1856 -94.5086 North 451 519 25,100 726 Climbing Minneapolis Center
Thu 10:59:12 AM 42.3136 -94.4939 North 458 527 26,400 919 Climbing Minneapolis Center
Thu 11:00:14 AM 42.4381 -94.4767 North 453 521 27,000 290 Climbing Minneapolis Center
Thu 11:01:16 AM 42.5600 -94.4600 North 453 521 27,000  Level Minneapolis Center
Thu 11:02:18 AM 42.6881 -94.4436 North 458 527 27,000  Level Minneapolis Center
Thu 11:03:20 AM 42.8167 -94.4269 North 462 532 27,000  Level Minneapolis Center
Thu 11:04:22 AM 42.9678 -94.4075 North 463 533 27,000  Level Minneapolis Center
Thu 11:05:24 AM 43.0936 -94.3917 North 458 527 27,000  Level Minneapolis Center
Thu 11:06:26 AM 43.2158 -94.3775 North 450 518 27,000  Level Minneapolis Center
Thu 11:07:28 AM 43.3431 -94.3603 North 442 509 27,000  Level Minneapolis Center
Thu 11:08:30 AM 43.4636 -94.3447 North 439 505 27,000  Level Minneapolis Center
Thu 11:09:32 AM 43.6092 -94.3247 North 438 504 27,000  Level Minneapolis Center
Thu 11:10:34 AM 43.7300 -94.3089 North 438 504 27,000  Level Minneapolis Center
Thu 11:11:36 AM 43.8508 -94.2931 North 437 503 27,000  Level Minneapolis Center
Thu 11:12:38 AM 43.9722 -94.2761 North 437 503 27,000  Level Minneapolis Center
Thu 11:13:41 AM 44.0931 -94.2597 North 437 503 27,000 -576 Level Minneapolis Center
Thu 11:14:43 AM 44.2158 -94.2419 North 441 507 25,800 -1,597 Descending Minneapolis Center
Thu 11:15:45 AM 44.3686 -94.2233 North 456 525 23,700 -2,129 Descending Minneapolis Center
Thu 11:16:47 AM 44.4833 -94.2267 359° North 414 476 21,400 -1,790 Descending Minneapolis Center
Thu 11:17:49 AM 44.5964 -94.2553 350° North 410 472 20,000 -1,355 Descending Minneapolis Center
Thu 11:18:51 AM 44.7058 -94.2797 351° North 401 461 18,600 -1,694 Descending Minneapolis Center
Thu 11:19:53 AM 44.8131 -94.3069 350° North 394 453 16,500 -2,129 Descending Minneapolis Center
Thu 11:20:55 AM 44.9128 -94.2861 North 364 419 14,200 -2,516 Descending Minneapolis Center
Thu 11:21:57 AM 45.0192 -94.2472 14° North 332 382 11,300 -2,277 Descending Minneapolis Center
Thu 11:23:12 AM 45.1153 -94.2133 14° North 304 350 9,000 -1,708 Descending Minneapolis Center
Thu 11:24:14 AM 45.1903 -94.1864 14° North 285 328 7,400 -1,645 Descending Minneapolis Center
Thu 11:25:16 AM 45.2600 -94.1622 14° North 265 305 5,600 -1,161 Descending Minneapolis Center
Thu 11:26:18 AM 45.3275 -94.1386 14° North 254 292 5,000 -677 Descending Minneapolis Center
Thu 11:27:20 AM 45.3897 -94.1056 20° North 242 278 4,200 -919 Descending Minneapolis Center
Thu 11:28:22 AM 45.4461 -94.0458 37° Northeast 213 245 3,100 -871 Descending Minneapolis Center
Thu 11:29:24 AM 45.4889 -94.0122 29° Northeast 187 215 2,400 -387 Descending Minneapolis Center
Thu 11:30:26 AM 45.5303 -93.9994 12° North 177 204 2,300 -97 Descending Minneapolis Center

Login

Don't have an account? Register now (free) for customized features, flight alerts, and more!